Pagrindinis puslapis
METAR-TAF:

METAR-TAF

Oro uostai :

Río Hato, Panama

platuma: 08-22-33N, ilguma: 080-07-40W, Aukštis: 32 m

Dabartinis oras

Ataskaita buvo paskelbta 1 valandą ir 12 minutes, ne 21:00 UTC
Vėjas 14 kt iš Šiaurės
Temperatūra 34°C
Drėgmė 44%
Slėgis 1010 hPa
Matomumas 10 km arba daugiau
Mažai debesys ne aukštis 3000 ft

METAR: MPSM 212100Z 36014KT(E) 9999 FEW030 34/20 Q1010

Laikas: 17:12 (22:12 UTC)

Prognozė

Ataskaita buvo paskelbta 5 valandos ir 12 minutes, ne 17:00 UTC
Prognozė galioja nuo 21 metu 18 UTC su 22 metu 24 UTC
Vėjas 8 kt iš Šiaurės
Matomumas 10 km arba daugiau
Mažai debesys ne aukštis 2000 ft
Laikinai
nuo 21 metu 19 UTC su 21 metu 21 UTC
Vėjas 16 kt iš Šiaurės
Išsisklaidę debesys ne aukštis 1800 ft
Išsisklaidę debesys ne aukštis 9000 ft
Laikinai
nuo 22 metu 04 UTC su 22 metu 06 UTC
Matomumas 10 km arba daugiau
nėra debesų žemiau 1500 m ir nėra kamuolinių lietaus debesų

TAF: MPSM 211700Z 2118/2224 35008KT 9999 FEW020 TEMPO 2119/2121 36016KT SCT018 SCT090 TEMPO 2204/2206 CAVOK

Orai ataskaitas ir orų prognozės (METAR, TAF).

turimą stotys yra geltonos ir raudonos taškus žemėlapyje.

Perkelti pele per norėdami pamatyti stoties vardą.

Tada spustelėkite, norėdami matyti oro stebėjimo ir prognozės.

Norėdami pakeisti žemėlapį: spustelėkite ant žalios mygtukų su juodo kryžiaus žemyn,; žalią mygtuką su brūkšneliu, jei norite nutolinti; arba žalių rodyklių gretimoms žemėlapius.


METAR-TAF: